This is the latest recevied weather packets stored in our database for station/object ZL1KPB-13. If no packets are shown the sender has not sent any weather packets the latest 10 day(s).
| Time | Temp. | Humidity | Pressure | Rain* | Wind** | Luminosity | Snow |
|---|---|---|---|---|---|---|---|
| 1778056879 | 13.89° C | 97% | 1030.9 hPa | 0 mm | - | - | - |
| 1778056280 | 13.89° C | 96% | 1030.9 hPa | 0 mm | - | - | - |
| 1778055673 | 13.89° C | 96% | 1030.9 hPa | 0 mm | - | - | - |
| 1778054460 | 14.44° C | 95% | 1030.9 hPa | 0 mm | - | - | - |
| 1778050236 | 15.56° C | 91% | 1031.1 hPa | 0 mm | - | - | - |
| 1778048426 | 16.11° C | 90% | 1031 hPa | 0 mm | - | - | - |
| 1778047823 | 16.11° C | 90% | 1030.9 hPa | 0 mm | - | - | - |
| 1778035269 | 21.67° C | 61% | 1031.3 hPa | 0 mm | - | - | - |
| 1778033457 | 20.56° C | 62% | 1031.4 hPa | 0 mm | - | - | - |
| 1778032250 | 21.67° C | 58% | 1031.5 hPa | 0 mm | - | - | - |
| 1778030440 | 21.11° C | 60% | 1031.7 hPa | 0 mm | - | - | - |
| 1778026275 | 18.89° C | 72% | 1032.2 hPa | 0 mm | - | - | - |
| 1778025068 | 21.11° C | 69% | 1032.5 hPa | 0 mm | - | - | - |
| 1778022051 | 20.56° C | 72% | 1032.8 hPa | 0 mm | - | - | - |
| 1778020865 | 18.89° C | 73% | 1033 hPa | 0 mm | - | - | - |
| 1778019033 | 17.78° C | 82% | 1033.2 hPa | 0 mm | - | - | - |
| 1778017826 | 16.11° C | 87% | 1033.3 hPa | 0 mm | - | - | - |
| 1778017244 | 15.56° C | 89% | 1033.3 hPa | 0 mm | - | - | - |
| 1778009436 | 11.67° C | 99% | 1032.3 hPa | 0 mm | - | - | - |
| 1778008229 | 11.67° C | 99% | 1032.2 hPa | 0 mm | - | - | - |
| 1778004065 | 12.22° C | 99% | 1032 hPa | 0 mm | - | - | - |
| 1778001651 | 12.22° C | 99% | 1032.2 hPa | 0 mm | - | - | - |
| 1777995094 | 12.22° C | 97% | 1032.5 hPa | 0 mm | - | - | - |
| 1777994469 | 12.22° C | 97% | 1032.5 hPa | 0 mm | - | - | - |
| 1777992055 | 12.22° C | 95% | 1032.8 hPa | 0 mm | - | - | - |
* Rain latest hour (hover to see other rain measurements)
** Current wind speed in m/s (hover to see current wind gust speed)